FAMM/MBD METAR and TAF weather

Enter ICAO airport designator
Station Type Date Time Source
FAMM METAR 2020/07/12 06:24 UTC NOAA

FAMM 120624Z 09005KT CAVOK 03/M04 Q1030 NOSIG


Station Type Date Time Source
FAMM Decoded METAR 2020/07/12 06:24 UTC NOAA

Mafikeng Intl. Ad, South Africa (FAMM) 25-47S 025-32E 1300M
Jul 12, 2020 - 02:24 AM EDT / 2020.07.12 0624 UTC
Wind: from the E (090 degrees) at 6 MPH (5 KT):0
Visibility: greater than 7 mile(s):0
Temperature: 37 F (3 C)
Dew Point: 24 F (-4 C)
Relative Humidity: 59%
Pressure (altimeter): 30.42 in. Hg (1030 hPa)
ob: FAMM 120624Z 09005KT CAVOK 03/M04 Q1030 NOSIG
cycle: 6

Station Type Date Time Source
FAMM TAF 2019/01/01 10:00 UTC NOAA

TAF FAMM 010900Z 0110/0118 04008KT 9999 BKN015
BECMG 0111/0113 34010KT BKN025 TX25/0113Z TN22/0118Z

Example: see airport list